Time;durP1;ratioP1;P1;durP2;ratioP2;P2;SDS_P1;SDS_P2;PMS_P1;PMS_P2;Temp;Humidity;BMP_temperature;BMP_pressure;BME280_temperature;BME280_humidity;BME280_pressure;Samples;Min_cycle;Max_cycle;Signal;HPM_P1;HPM_P2
2023/10/25 00:00:37;;;;;;;;;;;;;;;8.50;100.00;100106.13;5010354;28;1402;-78
2023/10/25 00:03:03;;;;;;;;;;;;;;;8.48;100.00;100108.00;5031221;28;1119;-79
2023/10/25 00:05:32;;;;;;;;;;;;;;;8.47;100.00;100106.38;5029898;28;1206;-78
2023/10/25 00:07:58;;;;;;;;;;;;;;;8.45;100.00;100103.13;5013586;28;1953;-78
2023/10/25 00:10:23;;;;;;;;;;;;;;;8.44;100.00;100101.47;5026682;28;1180;-77
2023/10/25 00:12:48;;;;;;;;;;;;;;;8.45;100.00;100092.78;5034734;28;1309;-78
2023/10/25 00:15:13;;;;;;;;;;;;;;;8.44;100.00;100093.72;5027094;28;1282;-78
2023/10/25 00:17:38;;;;;;;;;;;;;;;8.43;100.00;100093.84;5025981;28;1527;-78
2023/10/25 00:20:04;;;;;;;;;;;;;;;8.42;100.00;100087.03;5027378;28;1352;-78
2023/10/25 00:22:29;;;;;;;;;;;;;;;8.38;100.00;100091.66;5013626;28;1154;-78
2023/10/25 00:24:54;;;;;;;;;;;;;;;8.36;100.00;100083.22;5029598;28;1140;-78
2023/10/25 00:27:20;;;;;;;;;;;;;;;8.35;100.00;100085.91;5010443;28;1913;-78
2023/10/25 00:29:45;;;;;;;;;;;;;;;8.33;100.00;100075.69;5033219;28;1228;-78
2023/10/25 00:32:14;;;;;;;;;;;;;;;8.33;100.00;100080.88;5021709;28;1069;-78
2023/10/25 00:34:39;;;;;;;;;;;;;;;8.32;100.00;100076.66;5029667;28;1022;-78
2023/10/25 00:37:05;;;;;;;;;;;;;;;8.30;100.00;100083.69;5032802;28;1134;-78
2023/10/25 00:39:30;;;;;;;;;;;;;;;8.30;100.00;100078.53;5021391;28;1017;-80
2023/10/25 00:41:55;;;;;;;;;;;;;;;8.30;100.00;100094.03;5017406;28;1245;-78
2023/10/25 00:44:20;;;;;;;;;;;;;;;8.29;100.00;100096.75;5033023;28;1088;-78
2023/10/25 00:46:47;;;;;;;;;;;;;;;8.30;100.00;100091.44;5017993;28;1938;-78
2023/10/25 00:49:12;;;;;;;;;;;;;;;8.28;100.00;100085.59;5029267;28;1140;-78
2023/10/25 00:51:37;;;;;;;;;;;;;;;8.28;100.00;100085.59;5030982;28;1156;-77
2023/10/25 00:54:03;;;;;;;;;;;;;;;8.27;100.00;100094.31;5010754;28;1097;-79
2023/10/25 00:56:31;;;;;;;;;;;;;;;8.26;100.00;100092.66;5031107;28;1301;-78
2023/10/25 00:58:56;;;;;;;;;;;;;;;8.23;100.00;100098.06;5027028;28;1231;-78
2023/10/25 01:01:22;;;;;;;;;;;;;;;8.20;100.00;100103.47;5024463;28;1115;-81
2023/10/25 01:03:49;;;;;;;;;;;;;;;8.19;100.00;100091.53;5045189;28;1491;-78
2023/10/25 01:06:15;;;;;;;;;;;;;;;8.16;100.00;100097.78;5009390;28;1902;-78
2023/10/25 01:08:40;;;;;;;;;;;;;;;8.15;100.00;100079.81;5030188;28;1090;-77
2023/10/25 01:11:05;;;;;;;;;;;;;;;8.12;100.00;100080.06;5029487;28;1503;-79
2023/10/25 01:13:30;;;;;;;;;;;;;;;8.10;100.00;100087.13;5022570;28;1205;-78
2023/10/25 01:15:56;;;;;;;;;;;;;;;8.08;100.00;100074.31;5047431;28;1273;-77
2023/10/25 01:18:21;;;;;;;;;;;;;;;8.06;100.00;100080.56;5023194;28;1333;-79
2023/10/25 01:20:46;;;;;;;;;;;;;;;8.04;100.00;100074.72;5029944;28;1266;-78
2023/10/25 01:23:12;;;;;;;;;;;;;;;8.03;100.00;100075.66;5030667;28;1246;-78
2023/10/25 01:25:40;;;;;;;;;;;;;;;8.01;100.00;100082.72;5028319;28;1174;-78
2023/10/25 01:28:05;;;;;;;;;;;;;;;7.99;100.00;100075.94;5012381;28;2301;-79
2023/10/25 01:30:31;;;;;;;;;;;;;;;7.99;100.00;100070.75;5046373;28;1295;-78
2023/10/25 01:32:58;;;;;;;;;;;;;;;7.99;100.00;100060.44;5020088;28;1176;-79
2023/10/25 01:35:23;;;;;;;;;;;;;;;7.99;100.00;100070.75;5029009;28;1166;-79
2023/10/25 01:37:48;;;;;;;;;;;;;;;7.99;100.00;100060.44;5008960;28;1302;-79
2023/10/25 01:40:14;;;;;;;;;;;;;;;7.98;100.00;100058.81;5012303;28;1544;-78
2023/10/25 01:42:40;;;;;;;;;;;;;;;7.97;100.00;100052.00;5027071;28;1640;-78
2023/10/25 01:45:05;;;;;;;;;;;;;;;7.94;100.00;100047.06;5017357;28;1193;-79
2023/10/25 01:47:30;;;;;;;;;;;;;;;7.92;100.00;100048.16;5028451;28;1902;-78
2023/10/25 01:49:55;;;;;;;;;;;;;;;7.89;100.00;100046.63;5028072;28;1225;-79
2023/10/25 01:52:21;;;;;;;;;;;;;;;7.88;100.00;100052.75;5014131;28;1270;-78
2023/10/25 01:54:48;;;;;;;;;;;;;;;7.87;100.00;100040.78;5031212;28;1165;-78
2023/10/25 01:57:13;;;;;;;;;;;;;;;7.85;100.00;100047.81;5029600;28;1160;-79
2023/10/25 01:59:39;;;;;;;;;;;;;;;7.82;100.00;100035.19;5019444;28;1259;-78
2023/10/25 02:02:04;;;;;;;;;;;;;;;7.82;100.00;100026.63;5025162;28;1124;-78
2023/10/25 02:04:29;;;;;;;;;;;;;;;7.80;100.00;100042.25;5009822;28;1079;-78
2023/10/25 02:06:55;;;;;;;;;;;;;;;7.78;100.00;100031.22;5035059;28;2349;-78
2023/10/25 02:09:20;;;;;;;;;;;;;;;7.76;100.00;100033.13;5030180;28;1203;-78
2023/10/25 02:11:46;;;;;;;;;;;;;;;7.77;100.00;100024.41;5022728;28;1193;-78
2023/10/25 02:14:11;;;;;;;;;;;;;;;7.76;100.00;100022.78;5038088;28;1341;-78
2023/10/25 02:16:36;;;;;;;;;;;;;;;7.76;100.00;100021.97;5027732;28;1221;-79
2023/10/25 02:19:02;;;;;;;;;;;;;;;7.77;100.00;100014.09;5012824;28;1625;-78
2023/10/25 02:21:27;;;;;;;;;;;;;;;7.76;100.00;100014.22;5027333;28;1304;-78
2023/10/25 02:23:55;;;;;;;;;;;;;;;7.73;100.00;100008.34;5027852;28;1447;-78
2023/10/25 02:26:20;;;;;;;;;;;;;;;7.73;100.00;100002.38;5007008;28;1894;-78
2023/10/25 02:28:46;;;;;;;;;;;;;;;7.71;100.00;99999.94;5029577;28;1252;-78
2023/10/25 02:31:17;;;;;;;;;;;;;;;7.69;100.00;100006.19;5068783;27;1489;-73
2023/10/25 02:33:43;;;;;;;;;;;;;;;7.66;100.00;100006.41;5068097;28;1060;-73
2023/10/25 02:36:08;;;;;;;;;;;;;;;7.64;100.00;100005.75;5072366;28;1361;-73
2023/10/25 02:38:33;;;;;;;;;;;;;;;7.62;100.00;100005.03;5071659;28;1542;-73
2023/10/25 02:40:58;;;;;;;;;;;;;;;7.61;100.00;100000.81;5071029;28;1536;-73
2023/10/25 02:43:23;;;;;;;;;;;;;;;7.57;100.00;99991.69;5073843;28;1108;-74
2023/10/25 02:45:49;;;;;;;;;;;;;;;7.55;100.00;99998.75;5069061;28;1337;-73
2023/10/25 02:48:14;;;;;;;;;;;;;;;7.52;100.00;100004.16;5063190;28;1485;-73
2023/10/25 02:50:40;;;;;;;;;;;;;;;7.52;100.00;100004.16;5065974;28;1918;-73
2023/10/25 02:53:05;;;;;;;;;;;;;;;7.52;100.00;99993.84;5071502;28;1339;-73
2023/10/25 02:55:31;;;;;;;;;;;;;;;7.50;100.00;99980.25;5063000;28;1215;-73
2023/10/25 02:57:56;;;;;;;;;;;;;;;7.46;100.00;99984.84;5072976;28;1238;-72
2023/10/25 03:00:22;;;;;;;;;;;;;;;7.44;100.00;99976.41;5070514;28;1206;-73
2023/10/25 03:02:47;;;;;;;;;;;;;;;7.39;100.00;99979.34;5069692;28;1362;-73
2023/10/25 03:05:12;;;;;;;;;;;;;;;7.34;100.00;99971.19;5066179;28;1396;-73
2023/10/25 03:07:37;;;;;;;;;;;;;;;7.36;100.00;99984.78;5065739;28;1367;-73
2023/10/25 03:10:03;;;;;;;;;;;;;;;7.33;100.00;99974.69;5073673;28;1906;-73
2023/10/25 03:12:29;;;;;;;;;;;;;;;7.29;100.00;99970.75;5069071;28;1294;-73
2023/10/25 03:14:55;;;;;;;;;;;;;;;7.31;100.00;99968.84;5074917;28;1230;-73
2023/10/25 03:17:21;;;;;;;;;;;;;;;7.31;100.00;99963.69;5067763;28;1548;-73
2023/10/25 03:19:46;;;;;;;;;;;;;;;7.31;100.00;99963.69;5071375;28;1435;-72
2023/10/25 03:22:11;;;;;;;;;;;;;;;7.29;100.00;99962.19;5068541;28;1419;-73
2023/10/25 03:24:36;;;;;;;;;;;;;;;7.26;100.00;99967.59;5060750;28;1218;-72
2023/10/25 03:27:01;;;;;;;;;;;;;;;7.22;100.00;99961.84;5061788;28;1294;-72
2023/10/25 03:29:27;;;;;;;;;;;;;;;7.21;100.00;99955.06;5057114;28;1918;-73
2023/10/25 03:31:53;;;;;;;;;;;;;;;7.19;100.00;99951.81;5066361;28;1395;-72
2023/10/25 03:34:18;;;;;;;;;;;;;;;7.16;100.00;99946.88;5066983;28;1690;-73
2023/10/25 03:36:44;;;;;;;;;;;;;;;7.14;100.00;99953.94;5071361;28;1218;-73
2023/10/25 03:39:13;;;;;;;;;;;;;;;7.07;100.00;99952.78;5064537;28;1350;-73
2023/10/25 03:41:38;;;;;;;;;;;;;;;7.03;100.00;99946.25;5061800;28;1410;-73
2023/10/25 03:44:03;;;;;;;;;;;;;;;7.04;100.00;99942.72;5045414;28;1509;-74
2023/10/25 03:46:28;;;;;;;;;;;;;;;7.03;100.00;99941.09;5053701;28;1465;-74
2023/10/25 03:48:53;;;;;;;;;;;;;;;7.01;100.00;99937.81;5048698;28;1885;-73
2023/10/25 03:51:19;;;;;;;;;;;;;;;7.01;100.00;99942.97;5049860;28;1514;-73
2023/10/25 03:53:44;;;;;;;;;;;;;;;7.00;100.00;99931.03;5049335;28;1453;-74
2023/10/25 03:56:09;;;;;;;;;;;;;;;7.02;100.00;99929.16;5057111;28;1099;-73
2023/10/25 03:58:34;;;;;;;;;;;;;;;6.98;100.00;99912.28;5040570;28;1074;-73
2023/10/25 04:01:00;;;;;;;;;;;;;;;7.01;100.00;99930.09;5052905;28;1129;-73
2023/10/25 04:03:26;;;;;;;;;;;;;;;7.01;100.00;99922.34;5054665;28;1227;-73
2023/10/25 04:05:51;;;;;;;;;;;;;;;6.99;100.00;99927.63;5056591;28;1206;-73
2023/10/25 04:08:16;;;;;;;;;;;;;;;6.98;100.00;99922.59;5045833;28;1233;-77
2023/10/25 04:10:42;;;;;;;;;;;;;;;6.98;100.00;99927.75;5057782;28;1938;-74
2023/10/25 04:13:07;;;;;;;;;;;;;;;6.99;100.00;99916.50;5052936;28;1610;-72
2023/10/25 04:15:34;;;;;;;;;;;;;;;6.98;100.00;99917.44;5047206;28;1443;-71
2023/10/25 04:18:00;;;;;;;;;;;;;;;6.98;100.00;99917.44;5050080;28;1175;-72
2023/10/25 04:20:29;;;;;;;;;;;;;;;6.98;100.00;99914.84;5048661;28;1479;-73
2023/10/25 04:22:54;;;;;;;;;;;;;;;6.99;100.00;99909.56;5047457;28;1223;-72
2023/10/25 04:25:20;;;;;;;;;;;;;;;7.02;100.00;99903.38;5043591;28;1303;-72
2023/10/25 04:27:45;;;;;;;;;;;;;;;7.03;100.00;99905.00;5044304;28;1332;-73
2023/10/25 04:30:10;;;;;;;;;;;;;;;7.03;100.00;99910.16;5036893;28;1997;-73
2023/10/25 04:32:36;;;;;;;;;;;;;;;6.99;100.00;99893.28;5038972;28;1209;-76
2023/10/25 04:35:01;;;;;;;;;;;;;;;7.05;100.00;99903.91;5032175;28;1347;-73
2023/10/25 04:37:26;;;;;;;;;;;;;;;7.04;100.00;99897.13;5045232;28;1350;-73
2023/10/25 04:39:51;;;;;;;;;;;;;;;7.07;100.00;99907.22;5051537;28;1427;-72
2023/10/25 04:42:17;;;;;;;;;;;;;;;7.10;100.00;99906.13;5052763;28;1317;-73
2023/10/25 04:44:42;;;;;;;;;;;;;;;7.11;100.00;99907.75;5039427;28;1622;-73
2023/10/25 04:47:07;;;;;;;;;;;;;;;7.07;100.00;99902.03;5045683;28;2082;-72
2023/10/25 04:49:34;;;;;;;;;;;;;;;7.12;100.00;99893.94;5051241;28;1910;-74
2023/10/25 04:51:59;;;;;;;;;;;;;;;7.13;100.00;99901.53;5051833;28;1423;-73
2023/10/25 04:54:25;;;;;;;;;;;;;;;7.15;100.00;99894.50;5053563;28;1476;-73
2023/10/25 04:56:50;;;;;;;;;;;;;;;7.16;100.00;99892.72;5049682;28;1410;-72
2023/10/25 04:59:15;;;;;;;;;;;;;;;7.15;100.00;99891.91;5050400;28;1477;-73
2023/10/25 05:01:40;;;;;;;;;;;;;;;7.15;100.00;99893.69;5038618;28;1300;-72
2023/10/25 05:04:05;;;;;;;;;;;;;;;7.17;100.00;99881.50;5046959;28;1390;-72
2023/10/25 05:06:31;;;;;;;;;;;;;;;7.19;100.00;99879.59;5047942;28;1046;-73
2023/10/25 05:08:56;;;;;;;;;;;;;;;7.19;100.00;99877.00;5047220;28;1917;-72
2023/10/25 05:11:23;;;;;;;;;;;;;;;7.24;100.00;99876.63;5047710;28;1348;-72
2023/10/25 05:13:48;;;;;;;;;;;;;;;7.24;100.00;99877.47;5052281;28;1407;-72
2023/10/25 05:16:13;;;;;;;;;;;;;;;7.27;100.00;99863.47;5044575;28;1361;-72
2023/10/25 05:18:39;;;;;;;;;;;;;;;7.27;100.00;99856.56;5041547;28;1360;-72
2023/10/25 05:21:04;;;;;;;;;;;;;;;7.29;100.00;99848.72;5047912;28;1658;-72
2023/10/25 05:23:31;;;;;;;;;;;;;;;7.29;100.00;99854.69;5052684;28;1301;-72
2023/10/25 05:25:57;;;;;;;;;;;;;;;7.30;100.00;99853.72;5045978;28;1658;-72
2023/10/25 05:28:22;;;;;;;;;;;;;;;7.32;100.00;99849.25;5047173;28;1399;-72
2023/10/25 05:30:49;;;;;;;;;;;;;;;7.32;100.00;99849.25;5050594;28;1894;-72
2023/10/25 05:33:17;;;;;;;;;;;;;;;7.34;100.00;99842.22;5054516;28;1344;-72
2023/10/25 05:35:43;;;;;;;;;;;;;;;7.34;100.00;99842.22;5046211;28;1388;-73
2023/10/25 05:38:08;;;;;;;;;;;;;;;7.36;100.00;99850.63;5056293;28;1262;-78
2023/10/25 05:40:33;;;;;;;;;;;;;;;7.37;100.00;99847.09;5049414;28;1310;-72
2023/10/25 05:43:00;;;;;;;;;;;;;;;7.38;100.00;99838.41;5051429;28;1305;-72
2023/10/25 05:45:26;;;;;;;;;;;;;;;7.39;100.00;99829.72;5042144;28;1230;-72
2023/10/25 05:47:51;;;;;;;;;;;;;;;7.41;100.00;99811.56;5042274;28;1383;-72
2023/10/25 05:50:16;;;;;;;;;;;;;;;7.42;100.00;99819.16;5056273;28;1901;-72
2023/10/25 05:52:45;;;;;;;;;;;;;;;7.44;100.00;99812.09;5055826;28;1089;-72
2023/10/25 05:55:13;;;;;;;;;;;;;;;7.48;100.00;99830.72;5048305;28;1243;-72
2023/10/25 05:57:38;;;;;;;;;;;;;;;7.52;100.00;99828.72;5047419;28;1129;-72
2023/10/25 06:00:03;;;;;;;;;;;;;;;7.53;100.00;99831.16;5040750;28;1250;-72
2023/10/25 06:02:31;;;;;;;;;;;;;;;7.54;100.00;99827.63;5048293;28;1102;-73
2023/10/25 06:04:57;;;;;;;;;;;;;;;7.55;100.00;99823.28;5047313;28;1037;-73
2023/10/25 06:07:23;;;;;;;;;;;;;;;7.55;100.00;99821.50;5049014;28;1091;-72
2023/10/25 06:09:48;;;;;;;;;;;;;;;7.55;100.00;99818.94;5050661;28;1960;-72
2023/10/25 06:12:13;;;;;;;;;;;;;;;7.56;100.00;99814.59;5039535;28;1424;-72
2023/10/25 06:14:38;;;;;;;;;;;;;;;7.56;100.00;99819.75;5046103;28;1248;-72
2023/10/25 06:17:04;;;;;;;;;;;;;;;7.57;100.00;99805.91;5051653;28;1486;-73
2023/10/25 06:19:29;;;;;;;;;;;;;;;7.58;100.00;99812.72;5045034;28;1537;-72
2023/10/25 06:21:54;;;;;;;;;;;;;;;7.60;100.00;99805.66;5044920;28;1253;-72
2023/10/25 06:24:20;;;;;;;;;;;;;;;7.61;100.00;99802.13;5046776;28;1233;-73
2023/10/25 06:26:45;;;;;;;;;;;;;;;7.63;100.00;99800.25;5044836;28;1134;-72
2023/10/25 06:29:10;;;;;;;;;;;;;;;7.64;100.00;99797.53;5040956;28;1943;-73
2023/10/25 06:31:36;;;;;;;;;;;;;;;7.66;100.00;99799.97;5047098;28;1111;-74
2023/10/25 06:34:01;;;;;;;;;;;;;;;7.67;100.00;99791.25;5048391;28;1151;-72
2023/10/25 06:36:26;;;;;;;;;;;;;;;7.68;100.00;99798.06;5050101;28;1256;-73
2023/10/25 06:38:52;;;;;;;;;;;;;;;7.68;100.00;99793.75;5048623;28;1470;-72
2023/10/25 06:41:18;;;;;;;;;;;;;;;7.69;100.00;99794.56;5048017;28;1476;-73
2023/10/25 06:43:44;;;;;;;;;;;;;;;7.70;100.00;99791.00;5044245;28;1330;-73
2023/10/25 06:46:10;;;;;;;;;;;;;;;7.69;100.00;99779.88;5051144;28;1192;-72
2023/10/25 06:48:35;;;;;;;;;;;;;;;7.71;100.00;99783.13;5044150;28;1304;-73
2023/10/25 06:51:02;;;;;;;;;;;;;;;7.70;100.00;99778.09;5041471;28;1909;-73
2023/10/25 06:53:27;;;;;;;;;;;;;;;7.68;100.00;99773.09;5048430;28;1509;-72
2023/10/25 06:55:53;;;;;;;;;;;;;;;7.71;100.00;99769.41;5051318;28;1484;-73
2023/10/25 06:58:18;;;;;;;;;;;;;;;7.72;100.00;99764.13;5045856;28;1717;-72
2023/10/25 07:00:43;;;;;;;;;;;;;;;7.73;100.00;99764.91;5053460;28;1419;-73
2023/10/25 07:03:09;;;;;;;;;;;;;;;7.74;100.00;99756.22;5052464;28;1517;-72
2023/10/25 07:05:35;;;;;;;;;;;;;;;7.74;100.00;99756.22;5046976;28;1575;-72
2023/10/25 07:08:01;;;;;;;;;;;;;;;7.77;100.00;99755.97;5048258;28;2179;-72
2023/10/25 07:10:26;;;;;;;;;;;;;;;7.79;100.00;99754.06;5048694;28;1910;-73
2023/10/25 07:12:51;;;;;;;;;;;;;;;7.81;100.00;99752.19;5046759;28;1332;-72
2023/10/25 07:15:18;;;;;;;;;;;;;;;7.82;100.00;99743.50;5048912;28;1285;-72
2023/10/25 07:17:44;;;;;;;;;;;;;;;7.85;100.00;99732.88;5045102;28;1414;-73
2023/10/25 07:20:10;;;;;;;;;;;;;;;7.87;100.00;99732.78;5057858;28;1284;-72
2023/10/25 07:22:35;;;;;;;;;;;;;;;7.88;100.00;99730.03;5047141;28;1211;-72
2023/10/25 07:25:01;;;;;;;;;;;;;;;7.91;100.00;99727.19;5048679;28;1335;-72
2023/10/25 07:27:26;;;;;;;;;;;;;;;7.92;100.00;99734.00;5047681;28;1301;-72
2023/10/25 07:29:51;;;;;;;;;;;;;;;7.95;100.00;99723.38;5047781;28;1899;-74
2023/10/25 07:32:17;;;;;;;;;;;;;;;7.96;100.00;99712.09;5049774;28;1387;-73
2023/10/25 07:34:42;;;;;;;;;;;;;;;7.97;100.00;99718.91;5045686;28;1272;-74
2023/10/25 07:37:07;;;;;;;;;;;;;;;7.97;100.00;99711.16;5056364;28;1305;-73
2023/10/25 07:39:32;;;;;;;;;;;;;;;7.98;100.00;99707.63;5053509;28;1331;-73
2023/10/25 07:41:57;;;;;;;;;;;;;;;8.00;100.00;99704.91;5057737;28;1486;-73
2023/10/25 07:44:23;;;;;;;;;;;;;;;8.03;100.00;99696.06;5049474;28;1239;-72
2023/10/25 07:46:48;;;;;;;;;;;;;;;8.02;100.00;99691.84;5059437;28;1273;-72
2023/10/25 07:49:13;;;;;;;;;;;;;;;8.04;100.00;99687.38;5049509;28;1898;-74
2023/10/25 07:51:38;;;;;;;;;;;;;;;8.07;100.00;99700.00;5055863;28;1343;-72
2023/10/25 07:54:04;;;;;;;;;;;;;;;8.09;100.00;99698.13;5056080;28;989;-73
2023/10/25 07:56:29;;;;;;;;;;;;;;;8.09;100.00;99692.97;5054268;28;1292;-73
2023/10/25 07:58:54;;;;;;;;;;;;;;;8.11;100.00;99681.53;5058122;28;1143;-73
2023/10/25 08:01:19;;;;;;;;;;;;;;;8.12;100.00;99682.34;5053670;28;1170;-72
2023/10/25 08:03:45;;;;;;;;;;;;;;;8.14;100.00;99676.09;5052932;28;1044;-72
2023/10/25 08:06:10;;;;;;;;;;;;;;;8.16;100.00;99674.19;5058334;28;1142;-73
2023/10/25 08:08:35;;;;;;;;;;;;;;;8.17;100.00;99675.00;5041195;28;1147;-73
2023/10/25 08:11:04;;;;;;;;;;;;;;;8.18;100.00;99671.47;5049516;28;1941;-72
2023/10/25 08:13:30;;;;;;;;;;;;;;;8.21;100.00;99671.19;5049253;28;1443;-72
2023/10/25 08:15:55;;;;;;;;;;;;;;;8.23;100.00;99659.75;5055602;28;1364;-73
2023/10/25 08:18:21;;;;;;;;;;;;;;;8.26;100.00;99663.84;5048935;28;1207;-75
2023/10/25 08:20:46;;;;;;;;;;;;;;;8.28;100.00;99661.94;5055580;28;1414;-72
2023/10/25 08:23:11;;;;;;;;;;;;;;;8.31;100.00;99655.66;5053231;28;1264;-76
2023/10/25 08:25:36;;;;;;;;;;;;;;;8.32;100.00;99655.53;5047620;28;1217;-73
2023/10/25 08:28:01;;;;;;;;;;;;;;;8.35;100.00;99651.84;5049657;28;1352;-74
2023/10/25 08:30:27;;;;;;;;;;;;;;;8.37;100.00;99655.97;5051599;28;1941;-72
2023/10/25 08:32:52;;;;;;;;;;;;;;;8.38;100.00;99655.00;5053426;28;1282;-74
2023/10/25 08:35:18;;;;;;;;;;;;;;;8.42;100.00;99648.59;5048761;28;1330;-72
2023/10/25 08:37:43;;;;;;;;;;;;;;;8.43;100.00;99647.66;5054459;28;1483;-75
2023/10/25 08:40:09;;;;;;;;;;;;;;;8.44;100.00;99644.13;5050858;28;1422;-72
2023/10/25 08:42:35;;;;;;;;;;;;;;;8.45;100.00;99643.16;5055358;28;1367;-74
2023/10/25 08:45:00;;;;;;;;;;;;;;;8.47;100.00;99635.25;5051009;28;1545;-74
2023/10/25 08:47:25;;;;;;;;;;;;;;;8.48;100.00;99642.84;5056523;28;1557;-73
2023/10/25 08:49:50;;;;;;;;;;;;;;;8.49;100.00;99639.34;5060903;28;1906;-73
2023/10/25 08:52:21;;;;;;;;;;;;;;;8.52;100.00;99633.88;5060304;28;1097;-73
2023/10/25 08:54:46;;;;;;;;;;;;;;;8.54;100.00;99630.34;5056519;28;1371;-75
2023/10/25 08:57:12;;;;;;;;;;;;;;;8.55;100.00;99629.41;5055184;28;1437;-74
2023/10/25 08:59:42;;;;;;;;;;;;;;;8.57;100.00;99630.06;5052245;28;1276;-74
2023/10/25 09:02:09;;;;;;;;;;;;;;;8.57;100.00;99619.72;5047553;28;1404;-75
2023/10/25 09:04:34;;;;;;;;;;;;;;;8.57;100.00;99610.19;5049302;28;1564;-75
2023/10/25 09:06:59;;;;;;;;;;;;;;;8.56;100.00;99612.94;5045926;28;1328;-73
2023/10/25 09:09:37;;;;;;;;;;;;;;;8.56;100.00;99607.78;5051469;28;1894;-72
2023/10/25 09:12:03;;;;;;;;;;;;;;;8.56;100.00;99597.44;5047291;28;1427;-72
2023/10/25 09:14:44;;;;;;;;;;;;;;;8.60;100.00;99598.75;5041703;28;1250;-73
2023/10/25 09:17:09;;;;;;;;;;;;;;;8.60;100.00;99593.59;5053743;28;1284;-72
2023/10/25 09:19:35;;;;;;;;;;;;;;;8.62;100.00;99581.34;5044836;28;1347;-73
2023/10/25 09:22:18;;;;;;;;;;;;;;;8.58;100.00;99580.00;5046745;28;1292;-73
2023/10/25 09:24:50;;;;;;;;;;;;;;;8.67;100.00;99592.06;5042546;28;1382;-72
2023/10/25 09:27:17;;;;;;;;;;;;;;;8.69;100.00;99590.97;5043913;28;1371;-74
2023/10/25 09:29:42;;;;;;;;;;;;;;;8.70;100.00;99589.19;5045767;28;1983;-72
2023/10/25 09:32:07;;;;;;;;;;;;;;;8.72;100.00;99589.88;5042405;28;1354;-73
2023/10/25 09:34:34;;;;;;;;;;;;;;;8.73;100.00;99591.50;5049599;28;1470;-72
2023/10/25 09:37:00;;;;;;;;;;;;;;;8.75;100.00;99587.00;5042205;28;1434;-73
2023/10/25 09:39:25;;;;;;;;;;;;;;;8.75;100.00;99587.00;5047202;28;1299;-73
2023/10/25 09:41:52;;;;;;;;;;;;;;;8.77;100.00;99579.91;5048053;28;1341;-72
2023/10/25 09:44:19;;;;;;;;;;;;;;;8.75;100.00;99581.81;5036015;28;2581;-72
2023/10/25 09:46:45;;;;;;;;;;;;;;;8.75;100.00;99571.47;5036938;28;2152;-74
2023/10/25 09:49:14;;;;;;;;;;;;;;;8.77;100.00;99572.13;5043247;28;1910;-72
2023/10/25 09:51:42;;;;;;;;;;;;;;;8.76;100.00;99568.75;5034209;28;3195;-72
2023/10/25 09:54:11;;;;;;;;;;;;;;;8.77;100.00;99554.03;5036327;28;1977;-72
2023/10/25 09:56:37;;;;;;;;;;;;;;;8.76;100.00;99557.59;5047534;28;2018;-72
2023/10/25 09:59:02;;;;;;;;;;;;;;;8.78;100.00;99550.53;5033493;28;2456;-72
2023/10/25 10:01:27;;;;;;;;;;;;;;;8.80;100.00;99551.19;5030609;28;2028;-72
2023/10/25 10:03:59;;;;;;;;;;;;;;;8.82;100.00;99551.03;5037956;28;1930;-72
2023/10/25 10:06:29;;;;;;;;;;;;;;;8.81;100.00;99545.06;5032586;28;2190;-74
2023/10/25 10:09:05;;;;;;;;;;;;;;;8.82;100.00;99546.66;5036730;28;1945;-72
2023/10/25 10:11:34;;;;;;;;;;;;;;;8.87;100.00;99534.13;5045502;28;1954;-72
2023/10/25 10:14:18;;;;;;;;;;;;;;;8.88;100.00;99534.94;5047357;28;1501;-73
2023/10/25 10:16:43;;;;;;;;;;;;;;;8.87;100.00;99534.13;5047575;28;1487;-72
2023/10/25 10:19:12;;;;;;;;;;;;;;;8.88;100.00;99535.75;5049765;28;1070;-72
2023/10/25 10:21:56;;;;;;;;;;;;;;;8.89;100.00;99521.88;5041179;28;1275;-74
2023/10/25 10:24:37;;;;;;;;;;;;;;;8.89;100.00;99516.72;5042828;28;1157;-72
2023/10/25 10:27:02;;;;;;;;;;;;;;;8.90;100.00;99523.50;5044262;28;1331;-73
2023/10/25 10:29:33;;;;;;;;;;;;;;;8.94;100.00;99514.47;5047510;28;1902;-72
2023/10/25 10:31:59;;;;;;;;;;;;;;;8.94;100.00;99513.66;5044151;28;1595;-73
2023/10/25 10:34:38;;;;;;;;;;;;;;;8.93;100.00;99510.28;5050886;28;1360;-73
2023/10/25 10:37:07;;;;;;;;;;;;;;;8.93;100.00;99497.34;5049238;28;1182;-72
2023/10/25 10:39:32;;;;;;;;;;;;;;;8.95;100.00;99500.59;5056532;28;1413;-72
2023/10/25 10:42:01;;;;;;;;;;;;;;;8.97;100.00;99488.34;5055457;28;1112;-75
2023/10/25 10:44:26;;;;;;;;;;;;;;;8.96;100.00;99486.72;5045986;28;1312;-72
2023/10/25 10:46:54;;;;;;;;;;;;;;;8.97;100.00;99483.16;5052363;28;1387;-72
2023/10/25 10:49:21;;;;;;;;;;;;;;;9.00;100.00;99477.72;5044100;28;1902;-74
2023/10/25 10:51:47;;;;;;;;;;;;;;;8.98;100.00;99464.09;5060241;28;1133;-72
2023/10/25 10:54:12;;;;;;;;;;;;;;;8.99;100.00;99459.72;5052220;28;1290;-72
2023/10/25 10:56:37;;;;;;;;;;;;;;;8.99;100.00;99465.72;5057551;28;1163;-72
2023/10/25 10:59:03;;;;;;;;;;;;;;;8.98;100.00;99448.56;5048088;28;1257;-72
2023/10/25 11:01:29;;;;;;;;;;;;;;;9.01;100.00;99443.13;5051686;28;1094;-73
2023/10/25 11:03:56;;;;;;;;;;;;;;;8.99;100.00;99434.69;5054101;28;1269;-72
2023/10/25 11:06:24;;;;;;;;;;;;;;;9.06;100.00;99432.34;5048698;28;1523;-73
2023/10/25 11:08:49;;;;;;;;;;;;;;;9.02;100.00;99429.22;5053578;28;1313;-72
2023/10/25 11:11:14;;;;;;;;;;;;;;;9.01;100.00;99422.44;5047943;28;1898;-76
2023/10/25 11:13:40;;;;;;;;;;;;;;;9.03;100.00;99415.34;5050516;28;1292;-72
2023/10/25 11:16:10;;;;;;;;;;;;;;;9.00;100.00;99414.81;5058012;28;1206;-73
2023/10/25 11:18:35;;;;;;;;;;;;;;;9.01;100.00;99406.91;5052304;28;1366;-72
2023/10/25 11:21:01;;;;;;;;;;;;;;;9.03;100.00;99399.81;5053043;28;1361;-72
2023/10/25 11:23:26;;;;;;;;;;;;;;;9.02;100.00;99398.19;5050796;28;1355;-73
2023/10/25 11:25:51;;;;;;;;;;;;;;;9.01;100.00;99383.66;5053568;28;1366;-78
2023/10/25 11:28:18;;;;;;;;;;;;;;;9.02;100.00;99387.84;5046722;28;1059;-73
2023/10/25 11:30:44;;;;;;;;;;;;;;;9.03;100.00;99378.31;5043275;28;1975;-74
2023/10/25 11:33:09;;;;;;;;;;;;;;;9.04;100.00;99391.09;5054017;28;1365;-72
2023/10/25 11:35:36;;;;;;;;;;;;;;;9.10;100.00;99368.16;5050490;28;1228;-72
2023/10/25 11:38:02;;;;;;;;;;;;;;;9.07;100.00;99368.50;5056419;28;1277;-75
2023/10/25 11:40:53;;;;;;;;;;;;;;;9.08;100.00;99370.91;5050197;28;1441;-73
2023/10/25 11:43:19;;;;;;;;;;;;;;;9.10;100.00;99352.66;5035187;28;1528;-73
2023/10/25 11:45:45;;;;;;;;;;;;;;;9.10;100.00;99352.66;5041757;28;2354;-73
2023/10/25 11:48:10;;;;;;;;;;;;;;;9.16;100.00;99347.69;5033422;28;2303;-73
2023/10/25 11:50:35;;;;;;;;;;;;;;;9.13;100.00;99339.44;5033782;28;2089;-72
2023/10/25 11:53:01;;;;;;;;;;;;;;;9.14;100.00;99338.47;5032594;28;2008;-73
2023/10/25 11:55:27;;;;;;;;;;;;;;;9.16;100.00;99336.53;5033342;28;1899;-72
2023/10/25 11:57:52;;;;;;;;;;;;;;;9.27;100.00;99333.69;5033716;28;2067;-74
2023/10/25 12:00:18;;;;;;;;;;;;;;;9.21;100.00;99334.28;5031313;28;1928;-72
2023/10/25 12:02:43;;;;;;;;;;;;;;;9.22;100.00;99320.38;5031269;28;1954;-72
2023/10/25 12:05:09;;;;;;;;;;;;;;;9.26;100.00;99322.53;5032587;28;2581;-72
2023/10/25 12:07:34;;;;;;;;;;;;;;;9.29;100.00;99314.47;5043417;28;2153;-73
2023/10/25 12:09:59;;;;;;;;;;;;;;;9.28;100.00;99314.59;5040320;28;1987;-72
2023/10/25 12:12:25;;;;;;;;;;;;;;;9.36;100.00;99317.25;5045839;28;1404;-72
2023/10/25 12:14:51;;;;;;;;;;;;;;;9.31;100.00;99309.13;5043369;28;1385;-72
2023/10/25 12:17:16;;;;;;;;;;;;;;;9.30;100.00;99302.34;5044175;28;1563;-73
2023/10/25 12:19:41;;;;;;;;;;;;;;;9.32;100.00;99310.75;5047935;28;1561;-72
2023/10/25 12:22:08;;;;;;;;;;;;;;;9.31;100.00;99298.78;5046729;28;1394;-72
2023/10/25 12:24:33;;;;;;;;;;;;;;;9.32;100.00;99305.56;5041992;28;1412;-72
2023/10/25 12:27:01;;;;;;;;;;;;;;;9.36;100.00;99291.38;5043062;28;1387;-74
2023/10/25 12:29:27;;;;;;;;;;;;;;;9.39;100.00;99283.28;5045652;28;1969;-72
2023/10/25 12:31:52;;;;;;;;;;;;;;;9.38;100.00;99289.44;5041907;28;1686;-72
2023/10/25 12:34:17;;;;;;;;;;;;;;;9.39;100.00;99283.28;5047844;28;1179;-72
2023/10/25 12:36:42;;;;;;;;;;;;;;;9.39;100.00;99280.69;5045642;28;1540;-72
2023/10/25 12:39:08;;;;;;;;;;;;;;;9.41;100.00;99276.19;5046105;28;1709;-72
2023/10/25 12:41:33;;;;;;;;;;;;;;;9.44;100.00;99273.28;5049841;28;1477;-72
2023/10/25 12:43:58;;;;;;;;;;;;;;;9.45;100.00;99267.13;5051802;28;1332;-72
2023/10/25 12:46:23;;;;;;;;;;;;;;;9.45;100.00;99269.72;5047146;28;1377;-74
2023/10/25 12:48:49;;;;;;;;;;;;;;;9.47;100.00;99262.63;5054389;28;1459;-72